createdAt,value
2022-08-30T00:00:38.639Z,4.60
2022-08-30T00:01:38.637Z,4.90
2022-08-30T00:02:38.795Z,4.80
2022-08-30T00:03:38.727Z,5.10
2022-08-30T00:04:38.623Z,4.80
2022-08-30T00:05:38.596Z,4.70
2022-08-30T00:06:38.581Z,5.30
2022-08-30T00:07:38.578Z,5.20
2022-08-30T00:08:38.574Z,5.50
2022-08-30T00:09:38.576Z,5.20
2022-08-30T00:10:38.584Z,5.40
2022-08-30T00:11:38.593Z,5.60
2022-08-30T00:12:38.598Z,5.60
2022-08-30T00:13:38.543Z,5.40
2022-08-30T00:14:38.561Z,5.60
2022-08-30T00:15:38.579Z,5.20
2022-08-30T00:16:38.578Z,5.20
2022-08-30T00:17:38.518Z,5.50
2022-08-30T00:18:38.494Z,5.90
2022-08-30T00:19:38.482Z,5.30
2022-08-30T00:20:38.487Z,5.40
2022-08-30T00:21:38.490Z,5.30
2022-08-30T00:22:38.486Z,5.50
2022-08-30T00:23:38.451Z,5.30
2022-08-30T00:24:38.451Z,5.40
2022-08-30T00:25:38.443Z,5.50
2022-08-30T00:26:38.430Z,5.30
2022-08-30T00:27:38.428Z,5.60
2022-08-30T00:28:38.438Z,4.90
2022-08-30T00:29:38.419Z,4.90
2022-08-30T00:30:38.425Z,5.60
2022-08-30T00:31:38.484Z,5.50
2022-08-30T00:32:38.372Z,5.20
2022-08-30T00:33:38.379Z,5.00
2022-08-30T00:34:38.359Z,5.00
2022-08-30T00:35:38.366Z,5.00
2022-08-30T00:36:38.372Z,4.80
2022-08-30T00:37:38.340Z,4.70
2022-08-30T00:38:38.354Z,4.70
2022-08-30T00:39:38.321Z,4.40
2022-08-30T00:40:38.393Z,4.70
2022-08-30T00:41:38.318Z,4.60
2022-08-30T00:43:14.298Z,4.50
2022-08-30T00:43:39.316Z,4.30
2022-08-30T00:44:38.289Z,4.70
2022-08-30T00:45:38.271Z,4.80
2022-08-30T00:46:38.380Z,4.50
2022-08-30T00:47:38.266Z,4.30
2022-08-30T00:48:38.281Z,4.50
2022-08-30T00:49:38.240Z,4.50
2022-08-30T00:50:38.232Z,4.70
2022-08-30T00:51:38.255Z,4.70
2022-08-30T00:52:38.231Z,4.50
2022-08-30T00:53:38.213Z,4.70
2022-08-30T00:54:38.222Z,5.00
2022-08-30T00:55:39.054Z,4.70
2022-08-30T00:56:38.186Z,4.90
2022-08-30T00:57:38.201Z,5.30
2022-08-30T00:58:38.179Z,5.30
2022-08-30T00:59:38.176Z,5.60
2022-08-30T01:00:38.157Z,5.30
2022-08-30T01:01:38.242Z,5.60
2022-08-30T01:02:38.240Z,5.90
2022-08-30T01:03:38.222Z,5.40
2022-08-30T01:04:38.132Z,5.30
2022-08-30T01:05:38.129Z,5.30
2022-08-30T01:06:38.116Z,4.80
2022-08-30T01:07:38.108Z,5.00
2022-08-30T01:08:38.125Z,4.90
2022-08-30T01:09:38.123Z,4.70
2022-08-30T01:10:38.094Z,5.20
2022-08-30T01:11:38.075Z,5.10
2022-08-30T01:12:38.117Z,4.90
2022-08-30T01:13:38.083Z,4.70
2022-08-30T01:14:38.050Z,5.10
2022-08-30T01:15:38.056Z,4.60
2022-08-30T01:16:38.032Z,5.60
2022-08-30T01:17:38.031Z,4.80
2022-08-30T01:18:38.022Z,4.90
2022-08-30T01:19:38.034Z,4.90
2022-08-30T01:20:38.315Z,4.90
2022-08-30T01:21:37.996Z,5.00
2022-08-30T01:22:37.989Z,5.70
2022-08-30T01:23:38.352Z,5.40
2022-08-30T01:24:37.971Z,5.60
2022-08-30T01:25:37.990Z,5.70
2022-08-30T01:26:37.979Z,6.30
2022-08-30T01:27:37.948Z,5.40
2022-08-30T01:28:37.973Z,5.80
2022-08-30T01:29:37.933Z,6.00
2022-08-30T01:30:38.017Z,5.60
2022-08-30T01:31:37.912Z,6.00
2022-08-30T01:32:37.924Z,6.00
2022-08-30T01:33:37.895Z,5.60
2022-08-30T01:34:37.882Z,6.10
2022-08-30T01:35:37.873Z,5.80
2022-08-30T01:36:38.007Z,5.80
2022-08-30T01:37:38.915Z,5.30
2022-08-30T01:38:37.854Z,5.80
2022-08-30T01:39:37.860Z,4.80
2022-08-30T01:40:37.872Z,5.40
2022-08-30T01:41:37.846Z,5.40
2022-08-30T01:42:37.825Z,5.40
2022-08-30T01:43:37.812Z,5.20
2022-08-30T01:44:37.812Z,5.10
2022-08-30T01:45:37.811Z,5.70
2022-08-30T01:46:37.778Z,5.50
2022-08-30T01:47:37.926Z,6.20
2022-08-30T01:48:37.764Z,7.20
2022-08-30T01:49:37.761Z,7.70
2022-08-30T01:50:37.754Z,7.70
2022-08-30T01:51:37.750Z,7.70
2022-08-30T01:52:37.766Z,7.50
2022-08-30T01:53:37.754Z,7.90
2022-08-30T01:54:38.142Z,7.60
2022-08-30T01:55:37.716Z,7.60
2022-08-30T01:56:37.705Z,7.30
2022-08-30T01:57:37.697Z,7.80
2022-08-30T01:58:37.718Z,7.00
2022-08-30T01:59:37.678Z,7.10
2022-08-30T02:00:37.664Z,6.90
2022-08-30T02:01:37.694Z,7.60
2022-08-30T02:02:37.651Z,7.00
2022-08-30T02:03:37.690Z,7.50
2022-08-30T02:04:37.670Z,7.40
2022-08-30T02:05:37.636Z,6.70
2022-08-30T02:06:37.654Z,7.00
2022-08-30T02:07:38.264Z,6.90
2022-08-30T02:08:37.615Z,7.10
2022-08-30T02:09:37.591Z,7.00
2022-08-30T02:10:37.597Z,7.00
2022-08-30T02:11:37.583Z,7.10
2022-08-30T02:12:37.614Z,7.00
2022-08-30T02:13:37.567Z,7.50
2022-08-30T02:14:37.599Z,6.90
2022-08-30T02:15:41.451Z,7.10
2022-08-30T02:16:37.578Z,7.10
2022-08-30T02:17:37.537Z,6.90
2022-08-30T02:18:37.604Z,7.20
2022-08-30T02:19:37.520Z,6.90
2022-08-30T02:20:37.525Z,7.30
2022-08-30T02:21:37.508Z,6.70
2022-08-30T02:22:37.498Z,6.60
2022-08-30T02:23:37.485Z,6.90
2022-08-30T02:24:37.515Z,6.70
2022-08-30T02:25:37.498Z,6.80
2022-08-30T02:26:37.462Z,7.20
2022-08-30T02:27:37.452Z,6.60
2022-08-30T02:28:42.875Z,6.70
2022-08-30T02:29:38.433Z,6.90
2022-08-30T02:30:37.514Z,7.10
2022-08-30T02:31:37.448Z,6.60
2022-08-30T02:32:37.446Z,6.80
2022-08-30T02:33:37.414Z,5.70
2022-08-30T02:34:37.432Z,6.40
2022-08-30T02:35:37.393Z,6.30
2022-08-30T02:36:37.383Z,6.40
2022-08-30T02:37:37.383Z,6.00
2022-08-30T02:38:37.393Z,6.00
2022-08-30T02:39:37.359Z,6.20
2022-08-30T02:40:37.403Z,6.30
2022-08-30T02:41:37.339Z,6.70
2022-08-30T02:42:37.351Z,7.00
2022-08-30T02:43:37.327Z,6.60
2022-08-30T02:44:37.334Z,6.70
2022-08-30T02:45:37.328Z,6.70
2022-08-30T02:46:37.300Z,5.90
2022-08-30T02:47:37.305Z,6.10
2022-08-30T02:48:37.295Z,6.20
2022-08-30T02:49:37.304Z,5.90
2022-08-30T02:50:37.281Z,7.00
2022-08-30T02:51:37.283Z,6.10
2022-08-30T02:52:37.274Z,6.30
2022-08-30T02:53:37.255Z,5.80
2022-08-30T02:54:37.239Z,5.60
2022-08-30T02:55:37.833Z,6.10
2022-08-30T02:56:37.222Z,6.20
2022-08-30T02:57:37.216Z,5.60
2022-08-30T02:58:37.213Z,5.60
2022-08-30T02:59:37.195Z,6.50
2022-08-30T03:00:37.188Z,6.60
2022-08-30T03:01:37.306Z,6.30
2022-08-30T03:02:37.174Z,6.70
2022-08-30T03:03:37.252Z,6.40
2022-08-30T03:04:37.163Z,6.50
2022-08-30T03:05:39.708Z,6.40
2022-08-30T03:06:37.188Z,6.50
2022-08-30T03:07:37.162Z,6.40
2022-08-30T03:08:37.143Z,6.60
2022-08-30T03:09:37.143Z,6.70
2022-08-30T03:10:37.116Z,6.80
2022-08-30T03:11:37.109Z,6.80
2022-08-30T03:12:37.124Z,6.90
2022-08-30T03:13:37.114Z,6.50
2022-08-30T03:14:37.076Z,6.90
2022-08-30T03:15:37.075Z,7.40
2022-08-30T03:16:37.098Z,6.90
2022-08-30T03:17:37.061Z,6.70
2022-08-30T03:18:37.062Z,6.30
2022-08-30T03:19:37.073Z,6.60
2022-08-30T03:20:37.040Z,6.80
2022-08-30T03:21:37.059Z,7.30
2022-08-30T03:22:37.025Z,6.90
2022-08-30T03:23:37.045Z,7.70
2022-08-30T03:24:37.007Z,7.20
2022-08-30T03:25:37.010Z,7.10
2022-08-30T03:26:36.996Z,7.30
2022-08-30T03:27:37.001Z,6.80
2022-08-30T03:28:36.985Z,6.80
2022-08-30T03:29:36.965Z,6.70
2022-08-30T03:30:36.959Z,6.80
2022-08-30T03:31:37.704Z,6.60
2022-08-30T03:32:36.954Z,6.70
2022-08-30T03:33:36.975Z,7.10
2022-08-30T03:34:37.004Z,7.30
2022-08-30T03:35:36.923Z,7.30
2022-08-30T03:36:36.914Z,7.20
2022-08-30T03:37:36.905Z,7.30
2022-08-30T03:38:36.922Z,7.20
2022-08-30T03:39:36.888Z,7.50
2022-08-30T03:40:36.968Z,7.40
2022-08-30T03:41:36.874Z,6.90
2022-08-30T03:42:36.865Z,7.10
2022-08-30T03:43:36.884Z,6.80
2022-08-30T03:44:36.869Z,6.90
2022-08-30T03:45:36.918Z,7.20
2022-08-30T03:46:37.661Z,7.10
2022-08-30T03:47:36.829Z,7.80
2022-08-30T03:48:36.825Z,7.90
2022-08-30T03:49:36.820Z,8.00
2022-08-30T03:50:36.814Z,7.90
2022-08-30T03:51:36.815Z,7.80
2022-08-30T03:52:36.790Z,8.40
2022-08-30T03:53:36.789Z,8.20
2022-08-30T03:54:36.770Z,8.10
2022-08-30T03:55:36.759Z,8.90
2022-08-30T03:56:36.771Z,8.90
2022-08-30T03:57:36.774Z,9.00
2022-08-30T03:58:36.763Z,9.00
2022-08-30T03:59:36.750Z,9.40
2022-08-30T04:00:36.815Z,9.80
2022-08-30T04:01:36.745Z,9.50
2022-08-30T04:02:36.795Z,9.80
2022-08-30T04:03:36.708Z,9.40
2022-08-30T04:04:36.694Z,9.60
2022-08-30T04:05:36.762Z,10.40
2022-08-30T04:06:36.701Z,9.90
2022-08-30T04:07:36.667Z,9.60
2022-08-30T04:08:36.657Z,9.70
2022-08-30T04:09:36.654Z,9.20
2022-08-30T04:10:36.639Z,8.80
2022-08-30T04:11:36.665Z,9.30
2022-08-30T04:12:38.492Z,9.10
2022-08-30T04:13:36.621Z,8.70
2022-08-30T04:14:36.609Z,9.00
2022-08-30T04:15:36.617Z,8.60
2022-08-30T04:16:36.641Z,9.10
2022-08-30T04:17:36.607Z,8.70
2022-08-30T04:18:36.596Z,8.40
2022-08-30T04:19:36.576Z,7.90
2022-08-30T04:20:36.578Z,7.50
2022-08-30T04:21:42.706Z,7.20
2022-08-30T04:22:37.580Z,7.10
2022-08-30T04:23:36.534Z,7.60
2022-08-30T04:24:36.518Z,7.40
2022-08-30T04:25:36.517Z,7.40
2022-08-30T04:26:36.508Z,7.70
2022-08-30T04:27:36.519Z,8.30
2022-08-30T04:28:36.541Z,7.40
2022-08-30T04:29:36.518Z,7.10
2022-08-30T04:30:36.494Z,7.50
2022-08-30T04:31:36.550Z,7.60
2022-08-30T04:32:36.473Z,8.00
2022-08-30T04:33:36.467Z,6.90
2022-08-30T04:34:36.474Z,7.50
2022-08-30T04:35:36.470Z,7.20
2022-08-30T04:36:36.444Z,7.40
2022-08-30T04:37:36.429Z,7.40
2022-08-30T04:38:36.421Z,7.50
2022-08-30T04:39:36.442Z,7.30
2022-08-30T04:40:36.492Z,6.70
2022-08-30T04:41:36.396Z,6.90
2022-08-30T04:42:36.393Z,7.20
2022-08-30T04:43:36.394Z,7.90
2022-08-30T04:44:36.368Z,6.90
2022-08-30T04:45:36.467Z,7.70
2022-08-30T04:46:36.363Z,6.60
2022-08-30T04:47:37.375Z,6.90
2022-08-30T04:48:36.340Z,7.30
2022-08-30T04:49:36.333Z,6.70
2022-08-30T04:50:36.330Z,7.30
2022-08-30T04:51:36.318Z,6.90
2022-08-30T04:52:36.312Z,7.30
2022-08-30T04:53:36.317Z,7.20
2022-08-30T04:54:36.345Z,7.10
2022-08-30T04:55:36.296Z,6.40
2022-08-30T04:56:36.282Z,6.90
2022-08-30T04:57:36.289Z,6.80
2022-08-30T04:58:36.264Z,7.10
2022-08-30T04:59:36.280Z,6.60
2022-08-30T05:00:36.300Z,7.30
2022-08-30T05:01:45.678Z,7.30
2022-08-30T05:02:37.396Z,7.40
2022-08-30T05:03:36.223Z,7.40
2022-08-30T05:04:36.237Z,7.40
2022-08-30T05:05:36.210Z,7.20
2022-08-30T05:06:36.197Z,7.70
2022-08-30T05:07:36.219Z,7.80
2022-08-30T05:08:36.185Z,8.00
2022-08-30T05:09:36.204Z,7.40
2022-08-30T05:10:36.167Z,8.50
2022-08-30T05:11:36.179Z,8.00
2022-08-30T05:12:36.153Z,7.60
2022-08-30T05:13:36.995Z,8.40
2022-08-30T05:14:36.147Z,8.40
2022-08-30T05:15:36.142Z,8.10
2022-08-30T05:16:36.212Z,8.70
2022-08-30T05:17:36.123Z,8.20
2022-08-30T05:18:36.117Z,8.70
2022-08-30T05:19:36.134Z,9.10
2022-08-30T05:20:36.094Z,8.90
2022-08-30T05:21:36.077Z,9.30
2022-08-30T05:22:36.077Z,8.90
2022-08-30T05:23:36.101Z,9.20
2022-08-30T05:24:36.059Z,9.00
2022-08-30T05:25:36.076Z,8.90
2022-08-30T05:26:36.083Z,8.50
2022-08-30T05:27:37.204Z,9.30
2022-08-30T05:28:36.036Z,8.80
2022-08-30T05:29:36.025Z,8.50
2022-08-30T05:30:36.051Z,8.70
2022-08-30T05:31:36.077Z,8.30
2022-08-30T05:32:35.996Z,8.80
2022-08-30T05:33:38.900Z,8.20
2022-08-30T05:34:35.978Z,8.20
2022-08-30T05:35:35.969Z,8.00
2022-08-30T05:36:35.987Z,8.30
2022-08-30T05:37:35.991Z,8.50
2022-08-30T05:38:35.957Z,7.90
2022-08-30T05:39:45.145Z,7.30
2022-08-30T05:40:37.028Z,8.20
2022-08-30T05:41:36.881Z,7.60
2022-08-30T05:42:35.943Z,7.60
2022-08-30T05:43:35.914Z,7.60
2022-08-30T05:44:35.926Z,7.90
2022-08-30T05:45:35.894Z,7.40
2022-08-30T05:46:35.896Z,7.50
2022-08-30T05:47:35.931Z,7.60
2022-08-30T05:48:35.882Z,7.80
2022-08-30T05:49:35.866Z,7.60
2022-08-30T05:50:39.438Z,7.80
2022-08-30T05:51:35.869Z,7.00
2022-08-30T05:52:36.871Z,7.90
2022-08-30T05:53:35.861Z,7.50
2022-08-30T05:54:35.844Z,7.30
2022-08-30T05:55:35.820Z,7.30
2022-08-30T05:56:35.816Z,7.10
2022-08-30T05:57:35.799Z,7.60
2022-08-30T05:58:35.795Z,7.70
2022-08-30T05:59:35.819Z,7.30
2022-08-30T06:00:35.775Z,7.70
2022-08-30T06:01:35.833Z,7.50
2022-08-30T06:02:35.790Z,7.50
2022-08-30T06:03:35.751Z,7.60
2022-08-30T06:04:35.746Z,8.00
2022-08-30T06:05:35.791Z,8.10
2022-08-30T06:06:35.726Z,7.80
2022-08-30T06:07:35.720Z,7.60
2022-08-30T06:08:35.715Z,7.70
2022-08-30T06:09:35.705Z,7.70
2022-08-30T06:10:35.700Z,7.60
2022-08-30T06:11:35.718Z,7.90
2022-08-30T06:12:35.696Z,7.10
2022-08-30T06:13:35.665Z,7.40
2022-08-30T06:14:35.658Z,7.80
2022-08-30T06:15:35.649Z,7.10
2022-08-30T06:16:35.747Z,7.30
2022-08-30T06:17:35.737Z,7.40
2022-08-30T06:18:35.627Z,7.60
2022-08-30T06:19:35.627Z,7.50
2022-08-30T06:20:35.617Z,7.00
2022-08-30T06:21:35.612Z,7.70
2022-08-30T06:22:35.600Z,7.30
2022-08-30T06:23:35.615Z,7.00
2022-08-30T06:24:54.022Z,6.80
2022-08-30T06:25:42.174Z,6.70
2022-08-30T06:26:36.574Z,6.40
2022-08-30T06:27:35.611Z,6.80
2022-08-30T06:28:35.551Z,6.40
2022-08-30T06:29:35.561Z,6.50
2022-08-30T06:30:35.537Z,6.30
2022-08-30T06:31:35.545Z,6.80
2022-08-30T06:32:35.530Z,6.30
2022-08-30T06:33:35.500Z,6.20
2022-08-30T06:34:35.845Z,6.20
2022-08-30T06:35:46.814Z,6.10
2022-08-30T06:36:36.478Z,6.20
2022-08-30T06:37:35.465Z,6.50
2022-08-30T06:38:35.461Z,7.00
2022-08-30T06:39:35.509Z,6.90
2022-08-30T06:40:35.521Z,6.90
2022-08-30T06:41:35.429Z,9.50
2022-08-30T06:42:35.422Z,9.60
2022-08-30T06:43:35.410Z,8.30
2022-08-30T06:44:35.408Z,7.90
2022-08-30T06:45:35.411Z,7.90
2022-08-30T06:46:35.609Z,7.10
2022-08-30T06:47:35.383Z,9.00
2022-08-30T06:48:35.375Z,8.90
2022-08-30T06:49:35.374Z,7.60
2022-08-30T06:50:35.359Z,7.30
2022-08-30T06:51:35.354Z,6.40
2022-08-30T06:52:35.371Z,6.10
2022-08-30T06:53:35.337Z,6.40
2022-08-30T06:54:35.326Z,5.80
2022-08-30T06:55:35.317Z,6.00
2022-08-30T06:56:36.177Z,6.50
2022-08-30T06:57:35.321Z,6.00
2022-08-30T06:58:35.314Z,6.40
2022-08-30T07:01:03.405Z,6.20
2022-08-30T07:02:03.985Z,6.30
2022-08-30T07:03:03.642Z,6.30
2022-08-30T07:04:04.144Z,5.70
2022-08-30T07:05:02.225Z,5.80
2022-08-30T07:06:02.219Z,6.30
2022-08-30T07:07:02.226Z,5.40
2022-08-30T07:08:02.206Z,5.80
2022-08-30T07:09:02.198Z,5.80
2022-08-30T07:10:02.233Z,6.10
2022-08-30T07:11:02.176Z,5.70
2022-08-30T07:12:02.228Z,5.70
2022-08-30T07:13:02.170Z,5.50
2022-08-30T07:14:02.157Z,5.50
2022-08-30T07:15:02.146Z,5.60
2022-08-30T07:16:02.223Z,5.40
2022-08-30T07:17:02.149Z,5.70
2022-08-30T07:18:02.118Z,5.80
2022-08-30T07:19:02.137Z,5.50
2022-08-30T07:20:02.102Z,5.60
2022-08-30T07:21:02.090Z,5.30
2022-08-30T07:22:02.095Z,5.30
2022-08-30T07:23:02.080Z,5.00
2022-08-30T07:24:02.074Z,5.00
2022-08-30T07:25:02.092Z,4.90
2022-08-30T07:26:02.067Z,4.60
2022-08-30T07:27:02.052Z,5.40
2022-08-30T07:28:02.041Z,5.10
2022-08-30T07:29:02.032Z,9.30
2022-08-30T07:30:02.074Z,8.50
2022-08-30T07:31:02.074Z,6.30
2022-08-30T07:32:02.002Z,5.70
2022-08-30T07:33:02.005Z,7.80
2022-08-30T07:34:01.979Z,8.60
2022-08-30T07:35:01.982Z,8.10
2022-08-30T07:36:01.968Z,6.40
2022-08-30T07:37:01.988Z,5.60
2022-08-30T07:38:01.955Z,5.20
2022-08-30T07:39:01.946Z,4.90
2022-08-30T07:40:01.984Z,4.90
2022-08-30T07:41:01.922Z,5.00
2022-08-30T07:42:01.937Z,5.00
2022-08-30T07:43:02.011Z,5.50
2022-08-30T07:44:01.897Z,5.60
2022-08-30T07:45:01.900Z,6.20
2022-08-30T07:46:01.950Z,6.30
2022-08-30T07:47:01.893Z,5.00
2022-08-30T07:48:01.887Z,5.20
2022-08-30T07:49:01.921Z,5.50
2022-08-30T07:50:01.854Z,6.40
2022-08-30T07:51:05.188Z,8.30
2022-08-30T07:52:01.832Z,7.50
2022-08-30T07:53:01.885Z,7.60
2022-08-30T07:54:01.830Z,5.30
2022-08-30T07:55:01.804Z,5.60
2022-08-30T07:56:01.797Z,6.60
2022-08-30T07:57:01.790Z,5.70
2022-08-30T07:59:01.780Z,4.90
2022-08-30T08:00:01.784Z,5.20
2022-08-30T08:01:01.750Z,5.10
2022-08-30T08:02:01.821Z,4.60
2022-08-30T08:03:01.812Z,5.10
2022-08-30T08:04:01.766Z,4.70
2022-08-30T08:05:01.736Z,4.60
2022-08-30T08:06:01.729Z,4.50
2022-08-30T08:07:01.749Z,4.60
2022-08-30T08:08:01.711Z,5.00
2022-08-30T08:09:01.709Z,5.30
2022-08-30T08:10:01.711Z,5.90
2022-08-30T08:11:01.680Z,7.20
2022-08-30T08:12:01.725Z,5.80
2022-08-30T08:13:01.672Z,5.20
2022-08-30T08:14:01.685Z,4.20
2022-08-30T08:15:04.162Z,4.70
2022-08-30T08:16:02.729Z,5.40
2022-08-30T08:17:01.620Z,5.50
2022-08-30T08:18:01.639Z,5.70
2022-08-30T08:19:01.619Z,4.80
2022-08-30T08:20:01.603Z,3.60
2022-08-30T08:21:01.594Z,4.30
2022-08-30T08:22:19.944Z,4.70
2022-08-30T08:23:02.617Z,3.90
2022-08-30T08:24:01.568Z,4.30
2022-08-30T08:25:01.565Z,4.40
2022-08-30T08:26:01.573Z,4.30
2022-08-30T08:27:01.544Z,4.60
2022-08-30T08:28:01.547Z,4.80
2022-08-30T08:29:01.544Z,3.90
2022-08-30T08:30:01.517Z,4.20
2022-08-30T08:31:01.535Z,4.20
2022-08-30T08:32:01.496Z,3.70
2022-08-30T08:33:01.565Z,3.70
2022-08-30T08:35:01.472Z,3.60
2022-08-30T08:36:01.803Z,3.60
2022-08-30T08:37:01.462Z,3.40
2022-08-30T08:38:01.448Z,4.30
2022-08-30T08:39:01.448Z,4.10
2022-08-30T08:40:01.491Z,4.00
2022-08-30T08:41:01.428Z,3.40
2022-08-30T08:42:01.411Z,3.50
2022-08-30T08:43:01.409Z,4.10
2022-08-30T08:44:01.394Z,3.90
2022-08-30T08:45:01.394Z,3.60
2022-08-30T08:46:01.431Z,3.60
2022-08-30T08:47:01.386Z,3.60
2022-08-30T08:48:01.419Z,3.50
2022-08-30T08:49:01.367Z,3.40
2022-08-30T08:50:01.370Z,3.80
2022-08-30T08:51:02.789Z,3.70
2022-08-30T08:52:01.360Z,3.90
2022-08-30T08:53:01.328Z,3.30
2022-08-30T08:54:01.339Z,3.60
2022-08-30T08:55:01.318Z,3.70
2022-08-30T08:56:01.316Z,3.40
2022-08-30T08:57:01.330Z,3.70
2022-08-30T08:58:01.290Z,3.50
2022-08-30T08:59:01.290Z,3.70
2022-08-30T09:00:01.277Z,4.00
2022-08-30T09:01:01.273Z,3.70
2022-08-30T09:02:01.343Z,3.70
2022-08-30T09:03:01.259Z,3.30
2022-08-30T09:04:01.241Z,3.50
2022-08-30T09:05:01.267Z,3.60
2022-08-30T09:06:01.217Z,3.40
2022-08-30T09:07:01.219Z,3.30
2022-08-30T09:08:01.223Z,3.20
2022-08-30T09:09:01.201Z,3.50
2022-08-30T09:10:01.186Z,3.20
2022-08-30T09:11:01.182Z,3.20
2022-08-30T09:12:01.177Z,3.30
2022-08-30T09:13:02.291Z,3.80
2022-08-30T09:14:01.161Z,3.30
2022-08-30T09:15:01.154Z,3.50
2022-08-30T09:16:01.191Z,3.40
2022-08-30T09:17:02.649Z,3.70
2022-08-30T09:18:01.130Z,3.70
2022-08-30T09:19:01.156Z,3.40
2022-08-30T09:20:01.121Z,3.10
2022-08-30T09:21:01.118Z,3.20
2022-08-30T09:22:01.099Z,3.10
2022-08-30T09:23:01.091Z,3.70
2022-08-30T09:24:01.090Z,3.40
2022-08-30T09:25:01.108Z,3.10
2022-08-30T09:26:01.078Z,3.10
2022-08-30T09:27:01.072Z,3.10
2022-08-30T09:28:01.071Z,3.10
2022-08-30T09:29:01.117Z,3.10
2022-08-30T09:30:01.064Z,3.20
2022-08-30T09:31:01.101Z,3.00
2022-08-30T09:32:22.454Z,3.40
2022-08-30T09:33:02.019Z,3.20
2022-08-30T09:34:01.035Z,3.10
2022-08-30T09:35:01.027Z,3.40
2022-08-30T09:36:00.994Z,3.30
2022-08-30T09:37:00.988Z,3.50
2022-08-30T09:38:00.972Z,3.30
2022-08-30T09:39:00.970Z,3.20
2022-08-30T09:40:01.076Z,3.10
2022-08-30T09:41:00.965Z,3.40
2022-08-30T09:42:00.947Z,3.10
2022-08-30T09:43:00.937Z,3.10
2022-08-30T09:44:00.926Z,3.10
2022-08-30T09:45:00.937Z,3.00
2022-08-30T09:46:01.007Z,2.90
2022-08-30T09:47:00.914Z,3.30
2022-08-30T09:48:00.895Z,2.90
2022-08-30T09:49:00.895Z,2.80
2022-08-30T09:50:00.876Z,3.10
2022-08-30T09:51:00.884Z,3.10
2022-08-30T09:52:00.910Z,2.80
2022-08-30T09:53:00.879Z,2.70
2022-08-30T09:54:17.037Z,3.10
2022-08-30T09:55:01.839Z,3.10
2022-08-30T09:56:00.832Z,2.90
2022-08-30T09:57:00.831Z,3.00
2022-08-30T09:58:00.840Z,3.20
2022-08-30T09:59:00.813Z,3.20
2022-08-30T10:00:00.804Z,3.00
2022-08-30T10:01:00.829Z,2.80
2022-08-30T10:02:00.784Z,3.90
2022-08-30T10:03:00.782Z,3.40
2022-08-30T10:04:00.795Z,3.10
2022-08-30T10:05:00.773Z,2.80
2022-08-30T10:06:00.753Z,2.80
2022-08-30T10:07:00.743Z,2.60
2022-08-30T10:08:00.737Z,2.70
2022-08-30T10:09:00.747Z,2.60
2022-08-30T10:10:00.743Z,2.70
2022-08-30T10:11:00.720Z,2.80
2022-08-30T10:12:00.709Z,2.90
2022-08-30T10:13:00.701Z,2.90
2022-08-30T10:14:00.696Z,2.50
2022-08-30T10:15:00.705Z,2.60
2022-08-30T10:16:00.687Z,2.90
2022-08-30T10:17:00.661Z,2.60
2022-08-30T10:18:00.655Z,2.60
2022-08-30T10:19:00.647Z,2.50
2022-08-30T10:20:00.665Z,3.10
2022-08-30T10:21:00.631Z,2.80
2022-08-30T10:22:00.620Z,2.70
2022-08-30T10:23:00.631Z,3.00
2022-08-30T10:24:00.605Z,3.30
2022-08-30T10:25:00.599Z,3.00
2022-08-30T10:26:00.591Z,2.70
2022-08-30T10:27:00.580Z,2.80
2022-08-30T10:28:00.686Z,2.70
2022-08-30T10:29:00.566Z,2.70
2022-08-30T10:30:00.558Z,2.50
2022-08-30T10:31:00.549Z,2.80
2022-08-30T10:32:00.548Z,2.80
2022-08-30T10:33:00.551Z,2.70
2022-08-30T10:34:00.517Z,2.70
2022-08-30T10:35:00.511Z,2.60
2022-08-30T10:36:00.509Z,2.60
2022-08-30T10:37:00.493Z,2.40
2022-08-30T10:38:00.536Z,2.20
2022-08-30T10:39:00.509Z,2.70
2022-08-30T10:40:00.525Z,2.70
2022-08-30T10:41:00.489Z,2.30
2022-08-30T10:42:00.500Z,2.70
2022-08-30T10:43:00.453Z,2.40
2022-08-30T10:44:00.443Z,2.60
2022-08-30T10:45:00.459Z,2.60
2022-08-30T10:46:00.437Z,2.80
2022-08-30T10:47:00.426Z,2.30
2022-08-30T10:48:00.414Z,2.60
2022-08-30T10:49:00.434Z,2.80
2022-08-30T10:50:00.397Z,2.60
2022-08-30T10:51:00.385Z,2.40
2022-08-30T10:52:00.389Z,2.50
2022-08-30T10:53:00.375Z,2.70
2022-08-30T10:54:00.417Z,2.40
2022-08-30T10:55:00.591Z,2.70
2022-08-30T10:56:00.346Z,2.80
2022-08-30T10:57:00.446Z,2.80
2022-08-30T10:58:00.334Z,2.80
2022-08-30T10:59:00.321Z,2.60
2022-08-30T11:00:00.346Z,2.30
2022-08-30T11:01:00.345Z,2.20
2022-08-30T11:02:00.307Z,2.60
2022-08-30T11:03:00.292Z,2.50
2022-08-30T11:04:00.286Z,2.20
2022-08-30T11:05:00.746Z,2.50
2022-08-30T11:06:00.296Z,2.60
2022-08-30T11:07:00.301Z,2.40
2022-08-30T11:08:00.253Z,2.40
2022-08-30T11:09:00.262Z,2.20
2022-08-30T11:10:00.240Z,2.30
2022-08-30T11:11:00.229Z,2.50
2022-08-30T11:12:00.288Z,2.40
2022-08-30T11:13:00.687Z,2.30
2022-08-30T11:14:03.604Z,2.50
2022-08-30T11:15:01.191Z,2.50
2022-08-30T11:16:00.832Z,2.20
2022-08-30T11:17:00.186Z,2.30
2022-08-30T11:18:00.179Z,2.20
2022-08-30T11:19:00.164Z,2.60
2022-08-30T11:20:00.178Z,2.30
2022-08-30T11:21:00.170Z,2.50
2022-08-30T11:22:00.144Z,2.20
2022-08-30T11:23:00.163Z,2.30
2022-08-30T11:24:00.120Z,2.20
2022-08-30T11:25:00.136Z,2.70
2022-08-30T11:26:00.136Z,2.20
2022-08-30T11:27:00.159Z,2.40
2022-08-30T11:28:00.106Z,2.60
2022-08-30T11:29:00.162Z,2.30
2022-08-30T11:30:00.078Z,2.30
2022-08-30T11:31:00.080Z,2.30
2022-08-30T11:32:00.106Z,2.50
2022-08-30T11:33:00.059Z,2.60
2022-08-30T11:34:01.001Z,2.40
2022-08-30T11:35:00.046Z,2.60
2022-08-30T11:36:00.027Z,2.20
2022-08-30T11:37:00.062Z,2.30
2022-08-30T11:38:00.051Z,2.40
2022-08-30T11:39:00.011Z,2.30
2022-08-30T11:40:03.782Z,2.30
2022-08-30T11:41:00.015Z,2.30
2022-08-30T11:42:00.003Z,2.50
2022-08-30T11:43:00.039Z,2.20
2022-08-30T11:43:59.976Z,2.40
2022-08-30T11:44:59.974Z,2.50
2022-08-30T11:45:59.958Z,2.30
2022-08-30T11:46:59.941Z,2.30
2022-08-30T11:48:00.089Z,2.30
2022-08-30T11:48:59.919Z,2.50
2022-08-30T11:49:59.931Z,2.30
2022-08-30T11:50:59.902Z,2.50
2022-08-30T11:52:26.731Z,3.00
2022-08-30T11:53:01.109Z,2.70
2022-08-30T11:53:59.881Z,2.40
2022-08-30T11:54:59.897Z,2.40
2022-08-30T11:55:59.897Z,2.30
2022-08-30T11:56:59.871Z,2.40
2022-08-30T11:57:59.855Z,3.00
2022-08-30T11:58:59.846Z,2.50
2022-08-30T11:59:59.832Z,2.30
2022-08-30T12:00:59.874Z,2.60
2022-08-30T12:01:59.895Z,2.50
2022-08-30T12:02:59.932Z,2.50
2022-08-30T12:03:59.801Z,2.50
2022-08-30T12:04:59.785Z,2.70
2022-08-30T12:05:59.940Z,2.40
2022-08-30T12:06:59.775Z,2.60
2022-08-30T12:07:59.779Z,2.60
2022-08-30T12:09:02.350Z,2.50
2022-08-30T12:09:59.758Z,2.50
2022-08-30T12:10:59.788Z,2.30
2022-08-30T12:11:59.748Z,2.30
2022-08-30T12:12:59.743Z,2.40
2022-08-30T12:13:59.743Z,2.50
2022-08-30T12:14:59.721Z,2.50
2022-08-30T12:15:59.704Z,2.30
2022-08-30T12:16:59.807Z,2.50
2022-08-30T12:17:59.699Z,2.60
2022-08-30T12:18:59.678Z,2.70
2022-08-30T12:19:59.677Z,2.50
2022-08-30T12:20:59.656Z,2.60
2022-08-30T12:21:59.671Z,2.60
2022-08-30T12:22:59.677Z,2.80
2022-08-30T12:23:59.641Z,2.70
2022-08-30T12:24:59.649Z,3.90
2022-08-30T12:25:59.623Z,3.20
2022-08-30T12:26:59.718Z,4.20
2022-08-30T12:28:02.059Z,3.50
2022-08-30T12:28:59.599Z,3.20
2022-08-30T12:29:59.600Z,2.70
2022-08-30T12:30:59.593Z,2.80
2022-08-30T12:31:59.599Z,2.90
2022-08-30T12:32:59.598Z,3.30
2022-08-30T12:34:00.727Z,2.70
2022-08-30T12:34:59.553Z,2.60
2022-08-30T12:35:59.770Z,2.70
2022-08-30T12:36:59.549Z,3.00
2022-08-30T12:37:59.530Z,2.70
2022-08-30T12:39:02.561Z,3.00
2022-08-30T12:40:00.577Z,2.70
2022-08-30T12:40:59.515Z,2.60
2022-08-30T12:41:59.511Z,2.50
2022-08-30T12:42:59.536Z,2.90
2022-08-30T12:43:59.499Z,3.00
2022-08-30T12:44:59.495Z,2.90
2022-08-30T12:46:01.026Z,2.90
2022-08-30T12:47:00.457Z,2.70
2022-08-30T12:47:59.452Z,2.80
2022-08-30T12:48:59.467Z,2.40
2022-08-30T12:49:59.442Z,2.70
2022-08-30T12:50:59.425Z,2.60
2022-08-30T12:51:59.415Z,2.70
2022-08-30T12:52:59.416Z,2.80
2022-08-30T12:53:59.400Z,2.90
2022-08-30T12:54:59.415Z,2.60
2022-08-30T12:55:59.394Z,2.90
2022-08-30T12:57:10.004Z,2.40
2022-08-30T12:58:01.002Z,2.50
2022-08-30T12:58:59.369Z,2.60
2022-08-30T13:00:01.999Z,2.50
2022-08-30T13:00:59.466Z,2.50
2022-08-30T13:01:59.415Z,2.60
2022-08-30T13:02:59.342Z,2.60
2022-08-30T13:03:59.696Z,2.90
2022-08-30T13:04:59.324Z,2.80
2022-08-30T13:05:59.318Z,2.70
2022-08-30T13:06:59.333Z,2.90
2022-08-30T13:07:59.306Z,2.60
2022-08-30T13:08:59.286Z,2.40
2022-08-30T13:09:59.275Z,2.60
2022-08-30T13:10:59.288Z,2.60
2022-08-30T13:11:59.276Z,2.90
2022-08-30T13:12:59.254Z,3.10
2022-08-30T13:13:59.256Z,2.70
2022-08-30T13:14:59.234Z,3.10
2022-08-30T13:15:59.260Z,3.70
2022-08-30T13:16:59.245Z,3.80
2022-08-30T13:17:59.253Z,3.50
2022-08-30T13:18:59.216Z,2.80
2022-08-30T13:19:59.209Z,2.70
2022-08-30T13:20:59.200Z,2.80
2022-08-30T13:21:59.188Z,3.00